KEMP/EMP METAR and TAF weather

Enter ICAO airport designator
Station Type Date Time Source
KEMP METAR 2018/09/21 22:53 UTC NOAA

KEMP 212253Z AUTO 03007KT 10SM CLR 17/11 A3022 RMK AO2 SLP229 T01720106


Station Type Date Time Source
KEMP Decoded METAR 2018/09/21 22:53 UTC NOAA

EMPORIA MUNICIPAL AIRPORT, KS, United States (KEMP) 38-20N 96-12W 367M
Sep 21, 2018 - 06:53 PM EDT / 2018.09.21 2253 UTC
Wind: from the NNE (030 degrees) at 8 MPH (7 KT):0
Visibility: 10 mile(s):0
Sky conditions: clear
Temperature: 63.0 F (17.2 C)
Dew Point: 51.1 F (10.6 C)
Relative Humidity: 65%
Pressure (altimeter): 30.22 in. Hg (1023 hPa)
ob: KEMP 212253Z AUTO 03007KT 10SM CLR 17/11 A3022 RMK AO2 SLP229 T01720106
cycle: 23

Station Type Date Time Source
KEMP TAF UTC NOAA

Error!


Example: see airport list